createdAt,value
2022-11-09T00:01:28.993Z,9.48
2022-11-09T00:06:32.037Z,9.93
2022-11-09T00:11:33.686Z,8.82
2022-11-09T00:16:35.327Z,8.35
2022-11-09T00:21:36.864Z,8.60
2022-11-09T00:26:38.337Z,8.98
2022-11-09T00:31:39.857Z,10.95
2022-11-09T00:36:42.194Z,8.98
2022-11-09T00:41:43.741Z,10.32
2022-11-09T00:46:45.435Z,9.73
2022-11-09T00:51:47.016Z,9.82
2022-11-09T00:56:48.814Z,9.73
2022-11-09T01:01:50.462Z,10.30
2022-11-09T01:06:53.324Z,10.13
2022-11-09T01:11:55.010Z,9.48
2022-11-09T01:16:57.356Z,11.90
2022-11-09T01:22:00.966Z,10.23
2022-11-09T01:27:03.339Z,11.68
2022-11-09T01:32:05.441Z,10.45
2022-11-09T01:37:07.013Z,10.15
2022-11-09T01:42:08.550Z,10.70
2022-11-09T01:47:24.239Z,10.95
2022-11-09T01:52:32.088Z,12.77
2022-11-09T01:57:38.303Z,12.90
2022-11-09T02:02:44.771Z,11.57
2022-11-09T02:07:46.692Z,13.48
2022-11-09T02:12:48.936Z,12.32
2022-11-09T02:17:53.545Z,14.10
2022-11-09T02:22:56.391Z,15.40
2022-11-09T02:27:57.970Z,14.45
2022-11-09T02:32:59.569Z,12.10
2022-11-09T02:38:01.718Z,13.68
2022-11-09T02:43:07.358Z,11.85
2022-11-09T02:48:09.005Z,12.68
2022-11-09T02:53:12.085Z,12.25
2022-11-09T02:58:17.867Z,12.32
2022-11-09T03:03:19.850Z,12.98
2022-11-09T03:08:21.890Z,13.45
2022-11-09T03:13:26.060Z,11.90
2022-11-09T03:18:27.923Z,12.68
2022-11-09T03:23:29.659Z,11.40
2022-11-09T03:28:32.023Z,11.50
2022-11-09T03:33:33.954Z,15.35
2022-11-09T03:38:35.873Z,11.68
2022-11-09T03:43:38.128Z,12.27
2022-11-09T03:48:39.701Z,11.98
2022-11-09T03:53:41.214Z,13.27
2022-11-09T03:58:42.742Z,11.23
2022-11-09T04:03:44.258Z,10.98
2022-11-09T04:08:50.959Z,11.15
2022-11-09T04:13:53.917Z,11.35
2022-11-09T04:18:55.391Z,16.02
2022-11-09T04:23:56.908Z,15.07
2022-11-09T04:28:58.365Z,13.55
2022-11-09T04:34:00.026Z,12.70
2022-11-09T04:39:01.665Z,12.55
2022-11-09T04:44:04.005Z,12.50
2022-11-09T04:49:05.558Z,12.80
2022-11-09T04:54:07.189Z,12.52
2022-11-09T04:59:08.797Z,12.98
2022-11-09T05:04:10.426Z,11.80
2022-11-09T05:09:12.131Z,11.30
2022-11-09T05:14:13.796Z,11.25
2022-11-09T05:19:15.345Z,12.57
2022-11-09T05:24:16.897Z,10.13
2022-11-09T05:29:18.369Z,10.15
2022-11-09T05:34:19.881Z,12.13
2022-11-09T05:39:21.379Z,11.45
2022-11-09T05:44:22.934Z,10.52
2022-11-09T05:49:24.706Z,12.18
2022-11-09T05:54:26.249Z,10.40
2022-11-09T05:59:27.746Z,11.00
2022-11-09T06:04:29.314Z,12.02
2022-11-09T06:09:30.868Z,9.55
2022-11-09T06:14:32.367Z,15.05
2022-11-09T06:19:33.920Z,10.90
2022-11-09T06:24:35.504Z,10.00
2022-11-09T06:29:37.072Z,14.32
2022-11-09T06:34:38.552Z,16.35
2022-11-09T06:39:40.094Z,16.23
2022-11-09T06:44:41.579Z,12.20
2022-11-09T06:49:43.139Z,11.73
2022-11-09T06:54:44.721Z,12.77
2022-11-09T06:59:46.260Z,9.63
2022-11-09T07:04:51.424Z,11.48
2022-11-09T07:09:52.966Z,10.82
2022-11-09T07:14:54.455Z,9.57
2022-11-09T07:19:55.945Z,11.13
2022-11-09T07:24:57.445Z,9.75
2022-11-09T07:29:58.934Z,10.43
2022-11-09T07:35:00.486Z,10.43
2022-11-09T07:40:02.178Z,12.05
2022-11-09T07:45:04.097Z,10.50
2022-11-09T07:50:06.094Z,9.77
2022-11-09T07:55:08.107Z,9.90
2022-11-09T08:00:11.115Z,8.80
2022-11-09T08:05:15.648Z,13.32
2022-11-09T08:10:17.275Z,8.93
2022-11-09T08:15:18.806Z,8.18
2022-11-09T08:20:20.394Z,9.52
2022-11-09T08:25:22.190Z,8.88
2022-11-09T08:30:24.643Z,8.40
2022-11-09T08:35:26.774Z,8.73
2022-11-09T08:40:28.904Z,8.88
2022-11-09T08:45:33.116Z,10.30
2022-11-09T08:50:37.736Z,9.05
2022-11-09T08:55:39.299Z,9.38
2022-11-09T09:00:40.858Z,9.20
2022-11-09T09:05:42.366Z,9.60
2022-11-09T09:10:43.898Z,7.85
2022-11-09T09:15:45.429Z,7.15
2022-11-09T09:20:46.945Z,7.07
2022-11-09T09:25:48.448Z,7.72
2022-11-09T09:30:51.153Z,7.78
2022-11-09T09:35:55.631Z,7.30
2022-11-09T09:40:59.606Z,5.78
2022-11-09T09:46:05.070Z,7.20
2022-11-09T09:51:18.744Z,7.15
2022-11-09T09:56:28.484Z,7.40
2022-11-09T10:01:42.042Z,6.85
2022-11-09T10:06:59.690Z,7.10
2022-11-09T10:12:20.475Z,7.38
2022-11-09T10:18:04.865Z,20.73
2022-11-09T10:23:24.794Z,7.72
2022-11-09T10:28:42.328Z,6.25
2022-11-09T10:34:00.222Z,7.25
2022-11-09T10:39:01.919Z,10.82
2022-11-09T10:44:21.768Z,6.50
2022-11-09T10:49:42.948Z,6.05
2022-11-09T10:55:24.306Z,7.55
2022-11-09T11:01:24.675Z,6.18
2022-11-09T11:06:44.620Z,6.20
2022-11-09T11:12:17.410Z,7.50
2022-11-09T11:17:37.932Z,7.03
2022-11-09T11:23:16.574Z,6.75
2022-11-09T11:34:32.019Z,7.13
2022-11-09T11:40:07.771Z,6.82
2022-11-09T11:45:42.421Z,6.50
2022-11-09T11:51:08.727Z,6.78
2022-11-09T11:56:36.297Z,6.47
2022-11-09T12:02:15.320Z,6.50
2022-11-09T12:08:06.234Z,6.93
2022-11-09T12:13:54.183Z,6.15
2022-11-09T12:19:36.150Z,8.43
2022-11-09T12:25:15.027Z,10.05
2022-11-09T12:30:52.909Z,7.70
2022-11-09T12:36:41.490Z,7.50
2022-11-09T12:42:11.244Z,6.55
2022-11-09T12:47:40.239Z,7.10
2022-11-09T12:53:03.531Z,6.50
2022-11-09T12:58:35.060Z,7.32
2022-11-09T13:03:58.473Z,7.32
2022-11-09T13:09:24.437Z,6.80
2022-11-09T13:14:45.578Z,6.53
2022-11-09T13:20:53.887Z,6.97
2022-11-09T13:26:46.604Z,7.28
2022-11-09T13:32:12.530Z,6.90
2022-11-09T13:37:41.916Z,6.35
2022-11-09T13:43:07.993Z,8.75
2022-11-09T13:48:36.245Z,7.40
2022-11-09T13:59:23.335Z,7.03
2022-11-09T14:04:44.273Z,7.00
2022-11-09T14:10:31.734Z,7.78
2022-11-09T14:16:03.101Z,7.53
2022-11-09T14:22:01.937Z,8.18
2022-11-09T14:27:23.456Z,8.43
2022-11-09T14:32:48.811Z,8.05
2022-11-09T14:38:24.874Z,8.43
2022-11-09T14:43:45.048Z,9.05
2022-11-09T14:49:05.052Z,8.45
2022-11-09T14:54:27.042Z,9.23
2022-11-09T14:59:47.957Z,8.98
2022-11-09T15:05:41.217Z,9.93
2022-11-09T15:11:01.261Z,10.18
2022-11-09T15:16:24.434Z,12.20
2022-11-09T15:21:44.631Z,12.38
2022-11-09T15:27:34.877Z,11.70
2022-11-09T15:32:55.090Z,10.93
2022-11-09T15:38:34.242Z,10.15
2022-11-09T15:43:54.418Z,11.98
2022-11-09T15:49:24.834Z,13.02
2022-11-09T15:54:46.915Z,10.65
2022-11-09T16:00:14.406Z,11.45
2022-11-09T16:05:38.033Z,10.90
2022-11-09T16:10:58.106Z,11.30
2022-11-09T16:16:18.539Z,11.40
2022-11-09T16:21:38.819Z,12.40
2022-11-09T16:26:58.858Z,11.57
2022-11-09T16:32:19.028Z,10.88
2022-11-09T16:37:40.474Z,10.75
2022-11-09T16:43:00.660Z,9.60
2022-11-09T16:48:21.127Z,11.55
2022-11-09T16:53:41.337Z,12.23
2022-11-09T16:59:01.671Z,12.00
2022-11-09T17:04:22.429Z,10.82
2022-11-09T17:09:42.511Z,10.55
2022-11-09T17:15:02.933Z,10.73
2022-11-09T17:20:24.038Z,11.13
2022-11-09T17:25:55.909Z,13.38
2022-11-09T17:31:18.662Z,12.35
2022-11-09T17:42:18.531Z,11.05
2022-11-09T17:47:38.707Z,12.68
2022-11-09T17:52:58.732Z,10.95
2022-11-09T17:58:19.284Z,12.13
2022-11-09T18:03:39.797Z,12.00
2022-11-09T18:09:34.314Z,12.00
2022-11-09T18:14:40.013Z,12.48
2022-11-09T18:20:00.305Z,12.40
2022-11-09T18:25:21.569Z,14.95
2022-11-09T18:30:41.939Z,13.30
2022-11-09T18:36:05.318Z,16.08
2022-11-09T18:41:26.309Z,14.85
2022-11-09T18:46:47.185Z,15.23
2022-11-09T18:52:07.154Z,12.80
2022-11-09T18:57:27.347Z,21.25
2022-11-09T19:02:47.680Z,77.57
2022-11-09T19:08:08.590Z,20.50
2022-11-09T19:13:28.556Z,19.70
2022-11-09T19:18:49.106Z,31.65
2022-11-09T19:24:13.414Z,15.93
2022-11-09T19:29:33.795Z,14.35
2022-11-09T19:34:54.108Z,12.63
2022-11-09T19:40:14.465Z,13.40
2022-11-09T19:45:42.692Z,13.57
2022-11-09T19:51:04.443Z,13.15
2022-11-09T19:56:26.749Z,13.05
2022-11-09T20:01:46.761Z,13.38
2022-11-09T20:07:06.877Z,12.50
2022-11-09T20:12:45.801Z,12.30
2022-11-09T20:18:06.409Z,12.77
2022-11-09T20:23:27.800Z,15.07
2022-11-09T20:28:48.327Z,12.45
2022-11-09T20:34:08.778Z,12.30
2022-11-09T20:39:29.285Z,11.18
2022-11-09T20:44:52.150Z,11.57
2022-11-09T20:50:12.817Z,11.65
2022-11-09T20:55:36.488Z,11.02
2022-11-09T21:01:04.489Z,12.07
2022-11-09T21:06:24.584Z,11.05
2022-11-09T21:12:03.699Z,12.85
2022-11-09T21:17:23.969Z,20.08
2022-11-09T21:23:02.714Z,17.30
2022-11-09T21:28:42.406Z,11.07
2022-11-09T21:34:02.872Z,17.92
2022-11-09T21:39:23.557Z,87.43
2022-11-09T21:44:43.863Z,77.35
2022-11-09T21:50:08.235Z,78.53
2022-11-09T21:55:31.578Z,30.63
2022-11-09T22:00:52.010Z,41.47
2022-11-09T22:06:14.258Z,24.58
2022-11-09T22:11:53.069Z,16.55
2022-11-09T22:17:13.651Z,13.65
2022-11-09T22:22:34.313Z,10.70
2022-11-09T22:27:55.534Z,10.75
2022-11-09T22:33:20.709Z,10.05
2022-11-09T22:38:43.729Z,9.97
2022-11-09T22:44:04.231Z,9.48
2022-11-09T22:49:24.683Z,10.23
2022-11-09T22:54:45.008Z,8.88
2022-11-09T23:00:06.122Z,10.40
2022-11-09T23:05:26.523Z,9.45
2022-11-09T23:10:54.942Z,9.50
2022-11-09T23:16:15.096Z,9.40
2022-11-09T23:21:37.286Z,9.48
2022-11-09T23:26:57.758Z,10.07
2022-11-09T23:32:17.857Z,8.90
2022-11-09T23:37:38.111Z,8.68
2022-11-09T23:43:05.343Z,7.05
2022-11-09T23:48:25.620Z,7.07
2022-11-09T23:53:45.868Z,6.18
2022-11-09T23:59:05.957Z,5.72
